Lambs Grove, Massachusetts
Current Conditions -  °F | °C
As of 3:54 AM on Thursday 27 Nov 2014 (Local Time) from KORH Reporting Station
Light Snow Light Snow  
Wind Chill: 20°   Ceiling: 7000
Heat Index: 30°   Visibility: 9mi
Dew Point: 28°   Wind: 14mph
Humidity: 92%   Direction: 320°NW
Pressure: 29.76"   Gusts: 22mph
Location:  42.2477°N, 71.9927°W
Report Text: KORH 270854Z AUTO 32012G19KT 9SM -SN OVC070 M01/M02 A2976 RMK AO2 SNE18B27 SLP091 P0000 60003 T10111022 53015
Loading
Personal Weather Stations






























Interactive Weather Map New forecast layout! Learn more

10-Day Weather Forecast

Advertisements
Track Severe Weather on mobile